sensor_id;sensor_type;location;lat;lon;timestamp;temperature;humidity
53876;DHT22;39789;53.216;5.624;2023-02-01T00:02:07;6.40;99.90
53876;DHT22;39789;53.216;5.624;2023-02-01T00:04:32;6.40;99.90
53876;DHT22;39789;53.216;5.624;2023-02-01T00:09:34;6.40;99.90
53876;DHT22;39789;53.216;5.624;2023-02-01T00:12:00;6.40;99.90
53876;DHT22;39789;53.216;5.624;2023-02-01T00:14:28;6.40;99.90
53876;DHT22;39789;53.216;5.624;2023-02-01T00:16:54;6.40;99.90
53876;DHT22;39789;53.216;5.624;2023-02-01T00:19:19;6.40;99.90
53876;DHT22;39789;53.216;5.624;2023-02-01T00:21:46;6.50;99.90
53876;DHT22;39789;53.216;5.624;2023-02-01T00:24:12;6.30;99.90
53876;DHT22;39789;53.216;5.624;2023-02-01T00:26:40;6.40;99.90
53876;DHT22;39789;53.216;5.624;2023-02-01T00:32:47;6.60;99.90
53876;DHT22;39789;53.216;5.624;2023-02-01T00:35:13;6.60;99.90
53876;DHT22;39789;53.216;5.624;2023-02-01T00:37:38;6.60;99.90
53876;DHT22;39789;53.216;5.624;2023-02-01T00:40:04;6.60;99.90
53876;DHT22;39789;53.216;5.624;2023-02-01T00:42:30;6.50;99.90
53876;DHT22;39789;53.216;5.624;2023-02-01T00:44:56;6.60;99.90
53876;DHT22;39789;53.216;5.624;2023-02-01T00:47:22;6.60;99.90
53876;DHT22;39789;53.216;5.624;2023-02-01T00:49:47;6.60;99.90
53876;DHT22;39789;53.216;5.624;2023-02-01T00:52:13;6.60;99.90
53876;DHT22;39789;53.216;5.624;2023-02-01T00:54:39;6.50;99.90
53876;DHT22;39789;53.216;5.624;2023-02-01T00:57:04;6.60;99.90
53876;DHT22;39789;53.216;5.624;2023-02-01T00:59:30;6.60;99.90
53876;DHT22;39789;53.216;5.624;2023-02-01T01:01:55;6.60;99.90
53876;DHT22;39789;53.216;5.624;2023-02-01T01:04:21;6.60;99.90
53876;DHT22;39789;53.216;5.624;2023-02-01T01:06:47;6.60;99.90
53876;DHT22;39789;53.216;5.624;2023-02-01T01:09:12;6.60;99.90
53876;DHT22;39789;53.216;5.624;2023-02-01T01:11:38;6.60;99.90
53876;DHT22;39789;53.216;5.624;2023-02-01T01:14:08;6.70;99.90
53876;DHT22;39789;53.216;5.624;2023-02-01T01:16:33;6.70;99.90
53876;DHT22;39789;53.216;5.624;2023-02-01T01:19:00;6.60;99.90
53876;DHT22;39789;53.216;5.624;2023-02-01T01:21:26;6.70;99.90
53876;DHT22;39789;53.216;5.624;2023-02-01T01:23:52;6.70;99.90
53876;DHT22;39789;53.216;5.624;2023-02-01T01:26:28;6.70;99.90
53876;DHT22;39789;53.216;5.624;2023-02-01T01:28:55;6.60;99.90
53876;DHT22;39789;53.216;5.624;2023-02-01T01:31:24;6.60;99.90
53876;DHT22;39789;53.216;5.624;2023-02-01T01:33:55;6.60;99.90
53876;DHT22;39789;53.216;5.624;2023-02-01T01:36:21;6.60;99.90
53876;DHT22;39789;53.216;5.624;2023-02-01T01:38:47;6.60;99.90
53876;DHT22;39789;53.216;5.624;2023-02-01T01:41:16;6.70;99.90
53876;DHT22;39789;53.216;5.624;2023-02-01T01:44:01;6.60;99.90
53876;DHT22;39789;53.216;5.624;2023-02-01T01:46:32;6.50;99.90
53876;DHT22;39789;53.216;5.624;2023-02-01T01:49:11;6.50;99.90
53876;DHT22;39789;53.216;5.624;2023-02-01T01:51:52;6.50;99.90
53876;DHT22;39789;53.216;5.624;2023-02-01T01:54:25;6.50;99.90
53876;DHT22;39789;53.216;5.624;2023-02-01T01:56:55;6.60;99.90
53876;DHT22;39789;53.216;5.624;2023-02-01T01:59:26;5.90;99.90
53876;DHT22;39789;53.216;5.624;2023-02-01T02:01:52;6.50;99.90
53876;DHT22;39789;53.216;5.624;2023-02-01T02:04:20;6.30;99.90
53876;DHT22;39789;53.216;5.624;2023-02-01T02:09:16;6.50;99.90
53876;DHT22;39789;53.216;5.624;2023-02-01T02:11:41;7.90;99.90
53876;DHT22;39789;53.216;5.624;2023-02-01T02:14:15;8.10;99.90
53876;DHT22;39789;53.216;5.624;2023-02-01T02:17:03;6.30;99.90
53876;DHT22;39789;53.216;5.624;2023-02-01T02:26:16;6.60;99.90
53876;DHT22;39789;53.216;5.624;2023-02-01T02:31:54;6.60;99.90
53876;DHT22;39789;53.216;5.624;2023-02-01T02:34:40;6.60;99.90
53876;DHT22;39789;53.216;5.624;2023-02-01T02:37:15;6.50;99.90
53876;DHT22;39789;53.216;5.624;2023-02-01T02:45:07;6.70;99.90
53876;DHT22;39789;53.216;5.624;2023-02-01T02:50:33;6.60;99.90
53876;DHT22;39789;53.216;5.624;2023-02-01T02:53:28;6.60;99.90
53876;DHT22;39789;53.216;5.624;2023-02-01T02:56:13;6.70;99.90
53876;DHT22;39789;53.216;5.624;2023-02-01T02:58:59;6.60;99.90
53876;DHT22;39789;53.216;5.624;2023-02-01T03:01:43;6.70;99.90
53876;DHT22;39789;53.216;5.624;2023-02-01T03:04:28;6.60;99.90
53876;DHT22;39789;53.216;5.624;2023-02-01T03:06:57;6.60;99.90
53876;DHT22;39789;53.216;5.624;2023-02-01T03:09:34;6.60;99.90
53876;DHT22;39789;53.216;5.624;2023-02-01T03:12:09;6.60;99.90
53876;DHT22;39789;53.216;5.624;2023-02-01T03:14:59;6.60;99.90
53876;DHT22;39789;53.216;5.624;2023-02-01T03:17:31;6.60;99.90
53876;DHT22;39789;53.216;5.624;2023-02-01T03:20:00;6.60;99.90
53876;DHT22;39789;53.216;5.624;2023-02-01T03:22:28;6.60;99.90
53876;DHT22;39789;53.216;5.624;2023-02-01T03:25:14;6.70;99.90
53876;DHT22;39789;53.216;5.624;2023-02-01T03:27:54;6.70;99.90
53876;DHT22;39789;53.216;5.624;2023-02-01T03:30:28;6.70;99.90
53876;DHT22;39789;53.216;5.624;2023-02-01T03:32:59;6.70;99.90
53876;DHT22;39789;53.216;5.624;2023-02-01T03:35:50;6.70;99.90
53876;DHT22;39789;53.216;5.624;2023-02-01T03:40:51;6.70;99.90
53876;DHT22;39789;53.216;5.624;2023-02-01T03:43:19;6.70;99.90
53876;DHT22;39789;53.216;5.624;2023-02-01T03:45:52;6.70;99.90
53876;DHT22;39789;53.216;5.624;2023-02-01T03:48:20;6.70;99.90
53876;DHT22;39789;53.216;5.624;2023-02-01T03:50:51;6.70;99.90
53876;DHT22;39789;53.216;5.624;2023-02-01T03:53:20;6.60;99.90
53876;DHT22;39789;53.216;5.624;2023-02-01T03:55:48;6.70;99.90
53876;DHT22;39789;53.216;5.624;2023-02-01T03:58:16;6.60;99.90
53876;DHT22;39789;53.216;5.624;2023-02-01T04:00:54;6.60;99.90
53876;DHT22;39789;53.216;5.624;2023-02-01T04:03:20;6.50;99.90
53876;DHT22;39789;53.216;5.624;2023-02-01T04:05:48;6.50;99.90
53876;DHT22;39789;53.216;5.624;2023-02-01T04:08:14;6.50;99.90
53876;DHT22;39789;53.216;5.624;2023-02-01T04:10:40;6.40;99.90
53876;DHT22;39789;53.216;5.624;2023-02-01T04:13:05;6.30;99.90
53876;DHT22;39789;53.216;5.624;2023-02-01T04:15:31;6.30;99.90
53876;DHT22;39789;53.216;5.624;2023-02-01T04:17:57;6.20;99.90
53876;DHT22;39789;53.216;5.624;2023-02-01T04:20:23;6.20;99.90
53876;DHT22;39789;53.216;5.624;2023-02-01T04:22:48;6.20;99.90
53876;DHT22;39789;53.216;5.624;2023-02-01T04:25:14;6.20;99.90
53876;DHT22;39789;53.216;5.624;2023-02-01T04:27:39;6.10;99.90
53876;DHT22;39789;53.216;5.624;2023-02-01T04:30:05;6.10;99.90
53876;DHT22;39789;53.216;5.624;2023-02-01T04:32:38;6.10;99.90
53876;DHT22;39789;53.216;5.624;2023-02-01T04:35:04;6.10;99.90
53876;DHT22;39789;53.216;5.624;2023-02-01T04:37:30;6.10;99.90
53876;DHT22;39789;53.216;5.624;2023-02-01T04:39:55;6.10;99.90
53876;DHT22;39789;53.216;5.624;2023-02-01T04:42:21;6.20;99.90
53876;DHT22;39789;53.216;5.624;2023-02-01T04:44:47;6.20;99.90
53876;DHT22;39789;53.216;5.624;2023-02-01T04:47:13;6.20;99.90
53876;DHT22;39789;53.216;5.624;2023-02-01T04:49:39;6.30;99.90
53876;DHT22;39789;53.216;5.624;2023-02-01T04:52:05;6.30;99.90
53876;DHT22;39789;53.216;5.624;2023-02-01T04:54:31;6.40;99.90
53876;DHT22;39789;53.216;5.624;2023-02-01T04:56:56;6.40;99.90
53876;DHT22;39789;53.216;5.624;2023-02-01T04:59:22;6.40;99.90
53876;DHT22;39789;53.216;5.624;2023-02-01T05:01:48;6.30;99.90
53876;DHT22;39789;53.216;5.624;2023-02-01T05:04:13;6.40;99.90
53876;DHT22;39789;53.216;5.624;2023-02-01T05:06:39;6.40;99.90
53876;DHT22;39789;53.216;5.624;2023-02-01T05:09:04;6.40;99.90
53876;DHT22;39789;53.216;5.624;2023-02-01T05:11:30;6.30;99.90
53876;DHT22;39789;53.216;5.624;2023-02-01T05:14:14;6.30;99.90
53876;DHT22;39789;53.216;5.624;2023-02-01T05:16:40;6.30;99.90
53876;DHT22;39789;53.216;5.624;2023-02-01T05:19:05;6.30;99.90
53876;DHT22;39789;53.216;5.624;2023-02-01T05:21:31;6.30;99.90
53876;DHT22;39789;53.216;5.624;2023-02-01T05:23:56;6.30;99.90
53876;DHT22;39789;53.216;5.624;2023-02-01T05:26:45;6.30;99.90
53876;DHT22;39789;53.216;5.624;2023-02-01T05:29:11;6.30;99.90
53876;DHT22;39789;53.216;5.624;2023-02-01T05:31:37;6.20;99.90
53876;DHT22;39789;53.216;5.624;2023-02-01T05:34:03;6.30;99.90
53876;DHT22;39789;53.216;5.624;2023-02-01T05:36:30;6.30;99.90
53876;DHT22;39789;53.216;5.624;2023-02-01T05:38:55;6.30;99.90
53876;DHT22;39789;53.216;5.624;2023-02-01T05:41:21;6.30;99.90
53876;DHT22;39789;53.216;5.624;2023-02-01T05:43:47;7.40;99.90
53876;DHT22;39789;53.216;5.624;2023-02-01T05:46:12;6.20;99.90
53876;DHT22;39789;53.216;5.624;2023-02-01T05:48:42;6.20;99.90
53876;DHT22;39789;53.216;5.624;2023-02-01T05:51:09;6.10;99.90
53876;DHT22;39789;53.216;5.624;2023-02-01T05:53:35;6.10;99.90
53876;DHT22;39789;53.216;5.624;2023-02-01T05:56:00;6.10;99.90
53876;DHT22;39789;53.216;5.624;2023-02-01T05:58:26;6.00;99.90
53876;DHT22;39789;53.216;5.624;2023-02-01T06:00:52;6.00;99.90
53876;DHT22;39789;53.216;5.624;2023-02-01T06:03:17;6.90;99.90
53876;DHT22;39789;53.216;5.624;2023-02-01T06:05:44;6.00;99.90
53876;DHT22;39789;53.216;5.624;2023-02-01T06:08:10;6.00;99.90
53876;DHT22;39789;53.216;5.624;2023-02-01T06:10:39;6.00;99.90
53876;DHT22;39789;53.216;5.624;2023-02-01T06:13:04;6.10;99.90
53876;DHT22;39789;53.216;5.624;2023-02-01T06:15:30;7.10;99.90
53876;DHT22;39789;53.216;5.624;2023-02-01T06:17:57;6.10;99.90
53876;DHT22;39789;53.216;5.624;2023-02-01T06:20:22;6.10;99.90
53876;DHT22;39789;53.216;5.624;2023-02-01T06:22:48;6.10;99.90
53876;DHT22;39789;53.216;5.624;2023-02-01T06:25:13;6.90;99.90
53876;DHT22;39789;53.216;5.624;2023-02-01T06:27:39;6.30;99.90
53876;DHT22;39789;53.216;5.624;2023-02-01T06:30:06;6.30;99.90
53876;DHT22;39789;53.216;5.624;2023-02-01T06:32:31;6.30;99.90
53876;DHT22;39789;53.216;5.624;2023-02-01T06:34:57;6.30;99.90
53876;DHT22;39789;53.216;5.624;2023-02-01T06:37:23;6.30;99.90
53876;DHT22;39789;53.216;5.624;2023-02-01T06:39:54;6.30;99.90
53876;DHT22;39789;53.216;5.624;2023-02-01T06:42:20;6.30;99.90
53876;DHT22;39789;53.216;5.624;2023-02-01T06:44:46;6.20;99.90
53876;DHT22;39789;53.216;5.624;2023-02-01T06:47:14;6.20;99.90
53876;DHT22;39789;53.216;5.624;2023-02-01T06:49:40;6.20;99.90
53876;DHT22;39789;53.216;5.624;2023-02-01T06:52:05;6.10;99.90
53876;DHT22;39789;53.216;5.624;2023-02-01T06:54:31;6.10;99.90
53876;DHT22;39789;53.216;5.624;2023-02-01T06:56:59;6.10;99.90
53876;DHT22;39789;53.216;5.624;2023-02-01T06:59:24;6.10;99.90
53876;DHT22;39789;53.216;5.624;2023-02-01T07:01:50;6.10;99.90
53876;DHT22;39789;53.216;5.624;2023-02-01T07:04:16;6.10;99.90
53876;DHT22;39789;53.216;5.624;2023-02-01T07:06:41;6.00;99.90
53876;DHT22;39789;53.216;5.624;2023-02-01T07:09:07;6.00;99.90
53876;DHT22;39789;53.216;5.624;2023-02-01T07:11:33;6.00;99.90
53876;DHT22;39789;53.216;5.624;2023-02-01T07:14:00;6.00;99.90
53876;DHT22;39789;53.216;5.624;2023-02-01T07:16:26;6.10;99.90
53876;DHT22;39789;53.216;5.624;2023-02-01T07:18:52;6.00;99.90
53876;DHT22;39789;53.216;5.624;2023-02-01T07:21:19;6.10;99.90
53876;DHT22;39789;53.216;5.624;2023-02-01T07:23:45;6.10;99.90
53876;DHT22;39789;53.216;5.624;2023-02-01T07:26:12;6.10;99.90
53876;DHT22;39789;53.216;5.624;2023-02-01T07:28:39;6.10;99.90
53876;DHT22;39789;53.216;5.624;2023-02-01T07:31:11;6.20;99.90
53876;DHT22;39789;53.216;5.624;2023-02-01T07:33:37;6.20;99.90
53876;DHT22;39789;53.216;5.624;2023-02-01T07:36:05;6.20;99.90
53876;DHT22;39789;53.216;5.624;2023-02-01T07:38:31;6.20;99.90
53876;DHT22;39789;53.216;5.624;2023-02-01T07:41:02;6.20;99.90
53876;DHT22;39789;53.216;5.624;2023-02-01T07:43:29;6.20;99.90
53876;DHT22;39789;53.216;5.624;2023-02-01T07:45:55;6.10;99.90
53876;DHT22;39789;53.216;5.624;2023-02-01T07:48:21;6.10;99.90
53876;DHT22;39789;53.216;5.624;2023-02-01T07:50:48;6.10;99.90
53876;DHT22;39789;53.216;5.624;2023-02-01T07:53:14;6.10;99.90
53876;DHT22;39789;53.216;5.624;2023-02-01T07:55:40;6.20;99.90
53876;DHT22;39789;53.216;5.624;2023-02-01T07:58:06;6.10;99.90
53876;DHT22;39789;53.216;5.624;2023-02-01T08:00:31;6.20;99.90
53876;DHT22;39789;53.216;5.624;2023-02-01T08:03:15;6.20;99.90
53876;DHT22;39789;53.216;5.624;2023-02-01T08:05:41;6.30;99.90
53876;DHT22;39789;53.216;5.624;2023-02-01T08:08:07;7.50;99.90
53876;DHT22;39789;53.216;5.624;2023-02-01T08:10:33;6.30;99.90
53876;DHT22;39789;53.216;5.624;2023-02-01T08:13:00;6.30;99.90
53876;DHT22;39789;53.216;5.624;2023-02-01T08:15:27;6.40;99.90
53876;DHT22;39789;53.216;5.624;2023-02-01T08:17:53;6.50;99.90
53876;DHT22;39789;53.216;5.624;2023-02-01T08:20:20;6.50;99.90
53876;DHT22;39789;53.216;5.624;2023-02-01T08:22:53;6.50;99.90
53876;DHT22;39789;53.216;5.624;2023-02-01T08:25:18;6.50;99.90
53876;DHT22;39789;53.216;5.624;2023-02-01T08:27:44;6.60;99.90
53876;DHT22;39789;53.216;5.624;2023-02-01T08:30:11;7.30;99.90
53876;DHT22;39789;53.216;5.624;2023-02-01T08:32:37;6.60;99.90
53876;DHT22;39789;53.216;5.624;2023-02-01T08:35:04;6.60;99.90
53876;DHT22;39789;53.216;5.624;2023-02-01T08:37:30;6.60;99.90
53876;DHT22;39789;53.216;5.624;2023-02-01T08:39:56;6.60;99.90
53876;DHT22;39789;53.216;5.624;2023-02-01T08:42:21;6.60;99.90
53876;DHT22;39789;53.216;5.624;2023-02-01T08:45:06;6.50;99.90
53876;DHT22;39789;53.216;5.624;2023-02-01T08:47:33;6.70;99.90
53876;DHT22;39789;53.216;5.624;2023-02-01T08:49:59;6.60;99.90
53876;DHT22;39789;53.216;5.624;2023-02-01T08:52:25;6.60;99.90
53876;DHT22;39789;53.216;5.624;2023-02-01T08:54:50;6.70;99.90
53876;DHT22;39789;53.216;5.624;2023-02-01T08:57:16;6.60;99.90
53876;DHT22;39789;53.216;5.624;2023-02-01T08:59:42;6.70;99.90
53876;DHT22;39789;53.216;5.624;2023-02-01T09:02:14;6.70;99.90
53876;DHT22;39789;53.216;5.624;2023-02-01T09:04:40;6.70;99.90
53876;DHT22;39789;53.216;5.624;2023-02-01T09:07:07;6.70;99.90
53876;DHT22;39789;53.216;5.624;2023-02-01T09:09:33;6.70;99.90
53876;DHT22;39789;53.216;5.624;2023-02-01T09:11:59;5.80;99.90
53876;DHT22;39789;53.216;5.624;2023-02-01T09:14:24;6.70;99.90
53876;DHT22;39789;53.216;5.624;2023-02-01T09:20:31;6.80;99.90
53876;DHT22;39789;53.216;5.624;2023-02-01T09:22:57;6.80;99.90
53876;DHT22;39789;53.216;5.624;2023-02-01T09:25:23;7.70;99.90
53876;DHT22;39789;53.216;5.624;2023-02-01T09:27:48;6.90;99.90
53876;DHT22;39789;53.216;5.624;2023-02-01T09:30:14;6.90;99.90
53876;DHT22;39789;53.216;5.624;2023-02-01T09:32:39;6.90;99.90
53876;DHT22;39789;53.216;5.624;2023-02-01T09:35:05;6.90;99.90
53876;DHT22;39789;53.216;5.624;2023-02-01T09:37:31;6.90;99.90
53876;DHT22;39789;53.216;5.624;2023-02-01T09:40:34;6.80;99.90
53876;DHT22;39789;53.216;5.624;2023-02-01T09:43:17;6.80;99.90
53876;DHT22;39789;53.216;5.624;2023-02-01T09:48:21;6.80;99.90
53876;DHT22;39789;53.216;5.624;2023-02-01T09:50:55;7.80;99.90
53876;DHT22;39789;53.216;5.624;2023-02-01T09:53:29;6.90;99.90
53876;DHT22;39789;53.216;5.624;2023-02-01T09:56:11;7.00;99.90
53876;DHT22;39789;53.216;5.624;2023-02-01T09:58:42;7.80;99.90
53876;DHT22;39789;53.216;5.624;2023-02-01T10:01:20;7.10;99.90
53876;DHT22;39789;53.216;5.624;2023-02-01T10:03:47;7.10;99.90
53876;DHT22;39789;53.216;5.624;2023-02-01T10:20:20;7.50;99.90
53876;DHT22;39789;53.216;5.624;2023-02-01T10:23:08;7.60;99.90
53876;DHT22;39789;53.216;5.624;2023-02-01T10:25:55;7.60;99.90
53876;DHT22;39789;53.216;5.624;2023-02-01T10:28:22;7.60;99.90
53876;DHT22;39789;53.216;5.624;2023-02-01T10:30:51;7.70;99.90
53876;DHT22;39789;53.216;5.624;2023-02-01T10:33:33;7.70;99.90
53876;DHT22;39789;53.216;5.624;2023-02-01T10:36:21;7.70;99.90
53876;DHT22;39789;53.216;5.624;2023-02-01T10:38:47;7.70;99.90
53876;DHT22;39789;53.216;5.624;2023-02-01T10:41:15;7.70;99.90
53876;DHT22;39789;53.216;5.624;2023-02-01T10:43:42;7.70;99.90
53876;DHT22;39789;53.216;5.624;2023-02-01T10:46:08;7.70;99.90
53876;DHT22;39789;53.216;5.624;2023-02-01T10:48:34;7.80;99.90
53876;DHT22;39789;53.216;5.624;2023-02-01T10:51:07;8.70;99.90
53876;DHT22;39789;53.216;5.624;2023-02-01T10:53:44;9.00;99.90
53876;DHT22;39789;53.216;5.624;2023-02-01T10:56:12;7.70;99.90
53876;DHT22;39789;53.216;5.624;2023-02-01T10:58:46;7.80;99.90
53876;DHT22;39789;53.216;5.624;2023-02-01T11:01:18;7.80;99.90
53876;DHT22;39789;53.216;5.624;2023-02-01T11:03:53;7.50;99.90
53876;DHT22;39789;53.216;5.624;2023-02-01T11:06:27;7.70;99.90
53876;DHT22;39789;53.216;5.624;2023-02-01T11:08:56;7.70;99.90
53876;DHT22;39789;53.216;5.624;2023-02-01T11:11:23;7.70;99.90
53876;DHT22;39789;53.216;5.624;2023-02-01T11:17:35;7.70;99.90
53876;DHT22;39789;53.216;5.624;2023-02-01T11:20:12;7.70;99.90
53876;DHT22;39789;53.216;5.624;2023-02-01T11:22:48;7.70;99.90
53876;DHT22;39789;53.216;5.624;2023-02-01T11:25:16;7.70;99.90
53876;DHT22;39789;53.216;5.624;2023-02-01T11:27:42;7.70;99.90
53876;DHT22;39789;53.216;5.624;2023-02-01T11:30:16;7.80;99.90
53876;DHT22;39789;53.216;5.624;2023-02-01T11:32:44;7.80;99.90
53876;DHT22;39789;53.216;5.624;2023-02-01T11:35:15;9.10;99.90
53876;DHT22;39789;53.216;5.624;2023-02-01T11:37:42;7.80;99.90
53876;DHT22;39789;53.216;5.624;2023-02-01T11:43:01;7.90;99.90
53876;DHT22;39789;53.216;5.624;2023-02-01T11:45:33;7.90;99.90
53876;DHT22;39789;53.216;5.624;2023-02-01T11:48:00;7.90;99.90
53876;DHT22;39789;53.216;5.624;2023-02-01T11:50:47;7.90;99.90
53876;DHT22;39789;53.216;5.624;2023-02-01T11:53:23;8.00;99.90
53876;DHT22;39789;53.216;5.624;2023-02-01T11:58:47;8.00;99.90
53876;DHT22;39789;53.216;5.624;2023-02-01T12:01:28;8.00;99.90
53876;DHT22;39789;53.216;5.624;2023-02-01T12:06:55;8.00;99.90
53876;DHT22;39789;53.216;5.624;2023-02-01T12:12:24;8.00;99.90
53876;DHT22;39789;53.216;5.624;2023-02-01T12:20:37;8.10;99.90
53876;DHT22;39789;53.216;5.624;2023-02-01T12:29:38;8.20;99.90
53876;DHT22;39789;53.216;5.624;2023-02-01T12:32:32;8.20;99.90
53876;DHT22;39789;53.216;5.624;2023-02-01T12:38:02;8.10;99.90
53876;DHT22;39789;53.216;5.624;2023-02-01T12:43:52;8.10;99.90
53876;DHT22;39789;53.216;5.624;2023-02-01T12:46:31;8.00;99.90
53876;DHT22;39789;53.216;5.624;2023-02-01T12:49:19;8.00;99.90
53876;DHT22;39789;53.216;5.624;2023-02-01T12:51:52;7.90;99.90
53876;DHT22;39789;53.216;5.624;2023-02-01T12:54:31;8.00;99.90
53876;DHT22;39789;53.216;5.624;2023-02-01T12:57:06;8.00;99.90
53876;DHT22;39789;53.216;5.624;2023-02-01T13:03:25;8.00;99.90
53876;DHT22;39789;53.216;5.624;2023-02-01T13:05:37;8.00;99.90
53876;DHT22;39789;53.216;5.624;2023-02-01T13:08:11;8.80;99.90
53876;DHT22;39789;53.216;5.624;2023-02-01T13:10:48;8.10;99.90
53876;DHT22;39789;53.216;5.624;2023-02-01T13:13:41;8.10;99.90
53876;DHT22;39789;53.216;5.624;2023-02-01T13:16:21;8.10;99.90
53876;DHT22;39789;53.216;5.624;2023-02-01T13:18:57;8.10;99.90
53876;DHT22;39789;53.216;5.624;2023-02-01T13:21:27;8.20;99.90
53876;DHT22;39789;53.216;5.624;2023-02-01T13:23:54;8.20;99.90
53876;DHT22;39789;53.216;5.624;2023-02-01T13:26:20;8.20;99.90
53876;DHT22;39789;53.216;5.624;2023-02-01T13:29:02;8.30;99.90
53876;DHT22;39789;53.216;5.624;2023-02-01T13:37:41;8.30;99.90
53876;DHT22;39789;53.216;5.624;2023-02-01T13:43:25;8.20;99.90
53876;DHT22;39789;53.216;5.624;2023-02-01T13:45:55;8.10;99.90
53876;DHT22;39789;53.216;5.624;2023-02-01T13:49:01;8.10;99.90
53876;DHT22;39789;53.216;5.624;2023-02-01T13:51:38;8.20;99.90
53876;DHT22;39789;53.216;5.624;2023-02-01T13:54:06;8.20;99.90
53876;DHT22;39789;53.216;5.624;2023-02-01T13:56:40;8.20;99.90
53876;DHT22;39789;53.216;5.624;2023-02-01T14:13:39;8.40;99.90
53876;DHT22;39789;53.216;5.624;2023-02-01T14:26:46;8.20;99.90
53876;DHT22;39789;53.216;5.624;2023-02-01T14:56:11;8.10;99.90
53876;DHT22;39789;53.216;5.624;2023-02-01T14:58:56;8.10;99.90
53876;DHT22;39789;53.216;5.624;2023-02-01T15:06:32;7.90;99.90
53876;DHT22;39789;53.216;5.624;2023-02-01T15:09:08;7.90;99.90
53876;DHT22;39789;53.216;5.624;2023-02-01T15:11:55;7.80;99.90
53876;DHT22;39789;53.216;5.624;2023-02-01T15:14:21;7.80;99.90
53876;DHT22;39789;53.216;5.624;2023-02-01T15:16:47;7.70;99.90
53876;DHT22;39789;53.216;5.624;2023-02-01T15:19:24;7.70;99.90
53876;DHT22;39789;53.216;5.624;2023-02-01T15:21:56;7.70;99.90
53876;DHT22;39789;53.216;5.624;2023-02-01T15:24:25;7.70;99.90
53876;DHT22;39789;53.216;5.624;2023-02-01T15:26:53;7.60;99.90
53876;DHT22;39789;53.216;5.624;2023-02-01T15:29:21;7.60;99.90
53876;DHT22;39789;53.216;5.624;2023-02-01T15:31:49;7.50;99.90
53876;DHT22;39789;53.216;5.624;2023-02-01T15:34:16;7.50;99.90
53876;DHT22;39789;53.216;5.624;2023-02-01T15:36:43;7.50;99.90
53876;DHT22;39789;53.216;5.624;2023-02-01T15:39:17;8.30;99.90
53876;DHT22;39789;53.216;5.624;2023-02-01T15:41:54;7.40;99.90
53876;DHT22;39789;53.216;5.624;2023-02-01T15:44:40;7.40;99.90
53876;DHT22;39789;53.216;5.624;2023-02-01T15:47:17;7.30;99.90
53876;DHT22;39789;53.216;5.624;2023-02-01T15:49:50;7.30;99.90
53876;DHT22;39789;53.216;5.624;2023-02-01T15:54:55;7.30;99.90
53876;DHT22;39789;53.216;5.624;2023-02-01T15:57:26;7.30;99.90
53876;DHT22;39789;53.216;5.624;2023-02-01T16:00:00;7.30;99.90
53876;DHT22;39789;53.216;5.624;2023-02-01T16:02:43;7.30;99.90
53876;DHT22;39789;53.216;5.624;2023-02-01T16:08:12;7.30;99.90
53876;DHT22;39789;53.216;5.624;2023-02-01T16:10:42;7.20;99.90
53876;DHT22;39789;53.216;5.624;2023-02-01T16:13:08;7.20;99.90
53876;DHT22;39789;53.216;5.624;2023-02-01T16:15:34;7.20;99.90
53876;DHT22;39789;53.216;5.624;2023-02-01T16:18:03;7.20;99.90
53876;DHT22;39789;53.216;5.624;2023-02-01T16:20:28;7.20;99.90
53876;DHT22;39789;53.216;5.624;2023-02-01T16:22:55;7.20;99.90
53876;DHT22;39789;53.216;5.624;2023-02-01T16:25:21;7.20;99.90
53876;DHT22;39789;53.216;5.624;2023-02-01T16:27:46;7.10;99.90
53876;DHT22;39789;53.216;5.624;2023-02-01T16:30:12;7.10;99.90
53876;DHT22;39789;53.216;5.624;2023-02-01T16:32:41;7.10;99.90
53876;DHT22;39789;53.216;5.624;2023-02-01T16:35:23;7.00;99.90
53876;DHT22;39789;53.216;5.624;2023-02-01T16:37:49;6.90;99.90
53876;DHT22;39789;53.216;5.624;2023-02-01T16:40:16;6.90;99.90
53876;DHT22;39789;53.216;5.624;2023-02-01T16:42:43;6.80;99.90
53876;DHT22;39789;53.216;5.624;2023-02-01T16:45:09;6.80;99.90
53876;DHT22;39789;53.216;5.624;2023-02-01T16:47:37;6.80;99.90
53876;DHT22;39789;53.216;5.624;2023-02-01T16:50:03;7.50;99.90
53876;DHT22;39789;53.216;5.624;2023-02-01T16:52:29;6.80;99.90
53876;DHT22;39789;53.216;5.624;2023-02-01T16:54:55;7.10;99.90
53876;DHT22;39789;53.216;5.624;2023-02-01T16:57:21;6.70;99.90
53876;DHT22;39789;53.216;5.624;2023-02-01T16:59:49;6.70;99.90
53876;DHT22;39789;53.216;5.624;2023-02-01T17:02:17;6.70;99.90
53876;DHT22;39789;53.216;5.624;2023-02-01T17:04:45;7.90;99.90
53876;DHT22;39789;53.216;5.624;2023-02-01T17:07:15;6.70;99.90
53876;DHT22;39789;53.216;5.624;2023-02-01T17:09:41;6.70;99.90
53876;DHT22;39789;53.216;5.624;2023-02-01T17:12:20;6.80;99.90
53876;DHT22;39789;53.216;5.624;2023-02-01T17:14:47;6.70;99.90
53876;DHT22;39789;53.216;5.624;2023-02-01T17:17:17;7.30;99.90
53876;DHT22;39789;53.216;5.624;2023-02-01T17:19:59;6.80;99.90
53876;DHT22;39789;53.216;5.624;2023-02-01T17:22:25;6.80;99.90
53876;DHT22;39789;53.216;5.624;2023-02-01T17:24:50;6.80;99.90
53876;DHT22;39789;53.216;5.624;2023-02-01T17:27:17;6.70;99.90
53876;DHT22;39789;53.216;5.624;2023-02-01T17:29:43;6.80;99.90
53876;DHT22;39789;53.216;5.624;2023-02-01T17:32:22;6.70;99.90
53876;DHT22;39789;53.216;5.624;2023-02-01T17:34:49;6.70;99.90
53876;DHT22;39789;53.216;5.624;2023-02-01T17:37:33;6.70;99.90
53876;DHT22;39789;53.216;5.624;2023-02-01T17:40:02;6.70;99.90
53876;DHT22;39789;53.216;5.624;2023-02-01T17:42:28;6.70;99.90
53876;DHT22;39789;53.216;5.624;2023-02-01T17:45:18;6.70;99.90
53876;DHT22;39789;53.216;5.624;2023-02-01T17:47:45;6.70;99.90
53876;DHT22;39789;53.216;5.624;2023-02-01T17:50:12;6.60;99.90
53876;DHT22;39789;53.216;5.624;2023-02-01T17:52:41;6.70;99.90
53876;DHT22;39789;53.216;5.624;2023-02-01T17:55:25;6.60;99.90
53876;DHT22;39789;53.216;5.624;2023-02-01T17:57:51;6.60;99.90
53876;DHT22;39789;53.216;5.624;2023-02-01T18:00:17;6.60;99.90
53876;DHT22;39789;53.216;5.624;2023-02-01T18:02:44;6.60;99.90
53876;DHT22;39789;53.216;5.624;2023-02-01T18:05:20;6.30;99.90
53876;DHT22;39789;53.216;5.624;2023-02-01T18:07:46;6.50;99.90
53876;DHT22;39789;53.216;5.624;2023-02-01T18:10:13;6.60;99.90
53876;DHT22;39789;53.216;5.624;2023-02-01T18:12:39;6.60;99.90
53876;DHT22;39789;53.216;5.624;2023-02-01T18:15:21;6.50;99.90
53876;DHT22;39789;53.216;5.624;2023-02-01T18:17:50;6.50;99.90
53876;DHT22;39789;53.216;5.624;2023-02-01T18:20:20;6.50;99.90
53876;DHT22;39789;53.216;5.624;2023-02-01T18:22:46;6.40;99.90
53876;DHT22;39789;53.216;5.624;2023-02-01T18:27:50;6.40;99.90
53876;DHT22;39789;53.216;5.624;2023-02-01T18:30:24;6.40;99.90
53876;DHT22;39789;53.216;5.624;2023-02-01T18:32:52;7.70;99.90
53876;DHT22;39789;53.216;5.624;2023-02-01T18:35:24;6.40;99.90
53876;DHT22;39789;53.216;5.624;2023-02-01T18:37:51;6.40;99.90
53876;DHT22;39789;53.216;5.624;2023-02-01T18:40:25;6.40;99.90
53876;DHT22;39789;53.216;5.624;2023-02-01T18:42:51;6.40;99.90
53876;DHT22;39789;53.216;5.624;2023-02-01T18:45:39;6.40;99.90